Líbí se Vám tento web? Budeme velmi rádi, pokud přidáte hodnocení +1

Seznam meteostanic a jejich METAR

Vyhledat místa podle abecedy:
A B C D E F G H I J K L M N O P Q R S T U V W X Y Z

Filtrovat:

ID stanice:
a/nebo
Název místa (fulltext):
 
Místo (ID)Naposledy načteno 
Náměšť nad Oslavou (Namest n/O) 20.01.2018 03:00 UTC Zobrazit data
Místo: Náměšť nad Oslavou
Teplota: -2 °C (pocitová: -6.7 °C)
Vítr: 1 m/s z(e) 250°
Počasí: zataženo
Dohlednost: 15 km
Zákl. oblačnosti: 3/8 1800 m;8/8 2400 m
Vlhkost: 100%
N'Djamena (FTTJ) 20.01.2018 03:00 UTC Zobrazit METAR
FTTJ 200300Z 04007KT CAVOK 15/M07 Q1012 NOSIG
Nairobi (HKJK) 20.01.2018 03:00 UTC Zobrazit METAR
HKJK 200300Z 34002KT 9999 FEW015 16/14 Q1021
Nantes/ Atlantique (LFRS) 20.01.2018 03:00 UTC Zobrazit METAR
LFRS 200300Z AUTO 23007KT 200V260 7000 -RA BKN008 BKN014 BKN023 09/08 Q1014 TEMPO BKN010 BECMG 21016G30KT 3000 RA
Nassau (MYNN) 20.01.2018 03:00 UTC Zobrazit METAR
MYNN 200300Z 05005KT 9999 SCT020 SCT080 BKN200 21/12 A3023
Nauru (ANAU) Zatím nenačteno  
Nausori (NFNA) 20.01.2018 03:00 UTC Zobrazit METAR
NFNA 200300Z 08010KT 9999 SCT022 BKN300 32/24 Q1011
New York (KNYC) 20.01.2018 02:51 UTC Zobrazit METAR
KNYC 200251Z AUTO 25007KT 220V280 10SM CLR 04/M07 A2999 RMK AO2 SLP149 T00441072 58004
Newcastle (EGNT) 20.01.2018 02:50 UTC Zobrazit METAR
EGNT 200250Z 24004KT 9999 FEW020 01/M01 Q0999
Niamey (DRRN) 20.01.2018 03:00 UTC Zobrazit METAR
DRRN 200300Z 02002KT 8000 NSC 18/M05 Q1012 NOSIG
Nice/ Cote D'Azur (LFMN) 20.01.2018 03:00 UTC Zobrazit METAR
LFMN 200300Z 33004KT CAVOK 06/M04 Q1012 NOSIG
Niue Island (NIUE) 20.01.2018 03:00 UTC Zobrazit METAR
NIUE 200300Z AUTO 10015KT //// ////// 27/24 Q1011
Nizhny Novgorod (UWGG) 13.10.2017 15:00 UTC Zobrazit METAR
UWGG 131500Z 9000 NSC 10/07 Q1006 R18R/290050 NOSIG RMK QFE747
North Caicos I. (MBNC) Zatím nenačteno  
Nouakchott (GQNN) 23.06.2016 11:00 UTC Zobrazit METAR
GQNN 231100Z 23009KT 180V250 7000 BKN010 25/18 Q1013 NOSIG
Noumea (NWWM) Zatím nenačteno  
Nuku'alofa (NFTF) 20.01.2018 03:00 UTC Zobrazit METAR
NFTF 200300Z 10007KT 9999 FEW015 31/25 Q1014
Reklama

Počasí na Váš email

Emaily jsou bez reklamy a bez spamu



Odhlásit newsletter

Reklama


Lunární kalendář

  • 24.01.
  • 31.01.
  • 07.02.
  • 15.02.



Jsme na Google Plus

Reklama
Povinné ručení



Může Vás také zajímat:


Reklama